createdAt,value
2019-04-10T00:01:48.923Z,83.58
2019-04-10T00:04:53.651Z,83.26
2019-04-10T00:07:58.424Z,83.14
2019-04-10T00:11:02.868Z,83.25
2019-04-10T00:14:08.269Z,83.20
2019-04-10T00:17:13.168Z,82.95
2019-04-10T00:20:18.462Z,83.21
2019-04-10T00:23:23.004Z,82.80
2019-04-10T00:26:27.890Z,83.09
2019-04-10T00:29:32.429Z,83.42
2019-04-10T00:32:38.280Z,83.27
2019-04-10T00:35:43.764Z,83.04
2019-04-10T00:38:48.387Z,83.38
2019-04-10T00:41:52.832Z,83.62
2019-04-10T00:44:57.545Z,83.17
2019-04-10T00:48:01.988Z,83.26
2019-04-10T00:51:06.837Z,82.98
2019-04-10T00:54:11.939Z,82.94
2019-04-10T00:57:17.037Z,82.68
2019-04-10T01:00:21.984Z,82.36
2019-04-10T01:03:43.941Z,82.26
2019-04-10T01:06:48.515Z,81.89
2019-04-10T01:09:53.416Z,81.89
2019-04-10T01:12:58.729Z,81.71
2019-04-10T01:16:04.329Z,81.89
2019-04-10T01:19:09.936Z,81.71
2019-04-10T01:22:14.934Z,81.96
2019-04-10T01:25:19.487Z,82.08
2019-04-10T01:28:24.762Z,82.50
2019-04-10T01:31:29.601Z,82.66
2019-04-10T01:34:34.051Z,83.02
2019-04-10T01:37:48.642Z,82.80
2019-04-10T01:40:45.574Z,82.89
2019-04-10T01:43:50.998Z,82.59
2019-04-10T01:46:55.581Z,82.36
2019-04-10T01:50:00.091Z,82.33
2019-04-10T01:53:04.546Z,82.03
2019-04-10T01:56:21.226Z,81.76
2019-04-10T01:59:17.991Z,81.82
2019-04-10T02:02:27.391Z,81.12
2019-04-10T02:05:33.028Z,81.02
2019-04-10T02:08:38.227Z,81.02
2019-04-10T02:11:43.000Z,81.07
2019-04-10T02:14:47.497Z,81.03
2019-04-10T02:17:52.941Z,80.56
2019-04-10T02:20:57.471Z,80.79
2019-04-10T02:24:02.935Z,80.81
2019-04-10T02:27:07.874Z,81.05
2019-04-10T02:30:15.114Z,81.17
2019-04-10T02:33:19.747Z,81.35
2019-04-10T02:36:25.625Z,81.33
2019-04-10T02:39:38.166Z,81.32
2019-04-10T02:42:38.345Z,80.40
2019-04-10T02:45:44.435Z,81.02
2019-04-10T02:48:50.083Z,80.64
2019-04-10T02:51:55.062Z,80.25
2019-04-10T02:54:59.967Z,80.88
2019-04-10T02:58:06.094Z,80.68
2019-04-10T03:01:11.374Z,80.97
2019-04-10T03:04:16.622Z,81.34
2019-04-10T03:07:23.978Z,81.58
2019-04-10T03:10:38.243Z,81.26
2019-04-10T03:13:36.017Z,81.29
2019-04-10T03:16:41.765Z,81.11
2019-04-10T03:19:46.232Z,80.96
2019-04-10T03:22:51.385Z,80.89
2019-04-10T03:25:57.060Z,81.00
2019-04-10T03:29:01.720Z,80.29
2019-04-10T03:32:28.547Z,80.13
2019-04-10T03:35:43.824Z,80.48
2019-04-10T03:38:56.963Z,80.62
2019-04-10T03:41:54.809Z,81.45
2019-04-10T03:44:59.249Z,81.46
2019-04-10T03:48:04.897Z,81.70
2019-04-10T03:51:09.771Z,81.66
2019-04-10T03:54:15.190Z,81.84
2019-04-10T03:57:20.569Z,82.09
2019-04-10T04:00:25.882Z,82.61
2019-04-10T04:03:30.789Z,82.64
2019-04-10T04:06:35.493Z,82.91
2019-04-10T04:09:40.199Z,83.04
2019-04-10T04:12:44.923Z,83.08
2019-04-10T04:15:50.577Z,83.40
2019-04-10T04:18:55.079Z,83.46
2019-04-10T04:22:00.534Z,83.66
2019-04-10T04:25:06.743Z,83.49
2019-04-10T04:28:11.553Z,83.54
2019-04-10T04:31:16.078Z,83.35
2019-04-10T04:34:20.935Z,83.16
2019-04-10T04:37:26.009Z,83.28
2019-04-10T04:40:30.465Z,83.17
2019-04-10T04:43:35.206Z,83.22
2019-04-10T04:46:40.737Z,83.42
2019-04-10T04:49:45.254Z,83.01
2019-04-10T04:52:49.697Z,83.25
2019-04-10T04:55:54.227Z,83.25
2019-04-10T04:58:59.453Z,83.31
2019-04-10T05:02:04.311Z,83.20
2019-04-10T05:05:08.842Z,82.99
2019-04-10T05:08:13.275Z,82.02
2019-04-10T05:11:18.318Z,82.15
2019-04-10T05:14:23.799Z,81.54
2019-04-10T05:17:28.782Z,81.46
2019-04-10T05:20:43.729Z,81.45
2019-04-10T05:23:39.448Z,81.75
2019-04-10T05:26:44.889Z,81.65
2019-04-10T05:29:50.559Z,81.35
2019-04-10T05:32:55.687Z,81.21
2019-04-10T05:36:01.250Z,81.61
2019-04-10T05:39:08.504Z,81.74
2019-04-10T05:42:13.065Z,81.71
2019-04-10T05:45:17.507Z,81.12
2019-04-10T05:48:23.580Z,81.25
2019-04-10T05:51:29.039Z,81.67
2019-04-10T05:54:33.848Z,81.61
2019-04-10T05:57:38.284Z,81.64
2019-04-10T06:00:43.083Z,81.52
2019-04-10T06:03:47.514Z,81.61
2019-04-10T06:06:52.711Z,81.53
2019-04-10T06:10:01.898Z,81.66
2019-04-10T06:13:03.977Z,81.23
2019-04-10T06:16:08.401Z,81.25
2019-04-10T06:19:12.850Z,80.97
2019-04-10T06:22:17.300Z,80.83
2019-04-10T06:25:24.154Z,81.02
2019-04-10T06:28:30.582Z,81.35
2019-04-10T06:31:34.404Z,80.81
2019-04-10T06:34:39.662Z,80.60
2019-04-10T06:37:46.389Z,79.83
2019-04-10T06:40:51.019Z,79.66
2019-04-10T06:43:55.844Z,79.20
2019-04-10T06:47:00.295Z,78.56
2019-04-10T06:50:07.601Z,79.08
2019-04-10T06:53:14.630Z,79.13
2019-04-10T06:56:18.741Z,79.58
2019-04-10T06:59:23.455Z,78.76
2019-04-10T07:02:30.922Z,79.07
2019-04-10T07:05:40.875Z,78.96
2019-04-10T07:08:46.329Z,79.13
2019-04-10T07:11:47.938Z,78.74
2019-04-10T07:14:57.777Z,78.85
2019-04-10T07:17:59.407Z,77.78
2019-04-10T07:21:04.270Z,77.21
2019-04-10T07:24:11.014Z,77.81
2019-04-10T07:27:16.071Z,77.74
2019-04-10T07:30:24.107Z,78.36
2019-04-10T07:33:27.296Z,78.98
2019-04-10T07:36:32.902Z,78.16
2019-04-10T07:39:37.544Z,77.60
2019-04-10T07:42:43.341Z,76.11
2019-04-10T07:45:47.987Z,76.82
2019-04-10T07:48:52.742Z,75.99
2019-04-10T07:51:58.584Z,75.31
2019-04-10T07:55:04.405Z,76.44
2019-04-10T07:58:08.966Z,75.93
2019-04-10T08:01:14.093Z,76.53
2019-04-10T08:04:18.650Z,75.29
2019-04-10T08:07:29.821Z,74.76
2019-04-10T08:10:29.270Z,75.89
2019-04-10T08:13:33.968Z,77.04
2019-04-10T08:16:39.408Z,76.49
2019-04-10T08:19:44.032Z,75.52
2019-04-10T08:22:49.014Z,76.07
2019-04-10T08:25:53.818Z,77.53
2019-04-10T08:28:59.325Z,76.94
2019-04-10T08:32:03.855Z,76.43
2019-04-10T08:35:09.088Z,77.11
2019-04-10T08:38:13.637Z,77.47
2019-04-10T08:41:19.230Z,76.54
2019-04-10T08:44:24.379Z,76.90
2019-04-10T08:47:28.857Z,77.20
2019-04-10T08:50:34.449Z,76.96
2019-04-10T08:53:39.365Z,77.30
2019-04-10T08:56:44.836Z,77.46
2019-04-10T08:59:49.638Z,76.72
2019-04-10T09:02:54.767Z,77.18
2019-04-10T09:05:59.296Z,75.90
2019-04-10T09:09:05.493Z,76.91
2019-04-10T09:12:10.411Z,75.16
2019-04-10T09:15:16.045Z,75.71
2019-04-10T09:18:21.078Z,75.71
2019-04-10T09:21:25.590Z,74.12
2019-04-10T09:24:30.156Z,74.66
2019-04-10T09:27:35.854Z,73.02
2019-04-10T09:30:40.744Z,73.34
2019-04-10T09:33:45.411Z,73.62
2019-04-10T09:36:51.320Z,73.13
2019-04-10T09:39:56.510Z,71.53
2019-04-10T09:43:01.400Z,72.27
2019-04-10T09:46:06.484Z,71.90
2019-04-10T09:49:12.286Z,71.64
2019-04-10T09:52:17.023Z,70.29
2019-04-10T09:55:22.220Z,71.08
2019-04-10T09:58:27.102Z,69.99
2019-04-10T10:01:31.831Z,70.11
2019-04-10T10:04:36.284Z,71.01
2019-04-10T10:07:41.070Z,70.08
2019-04-10T10:10:47.104Z,70.06
2019-04-10T10:13:52.277Z,70.75
2019-04-10T10:16:57.977Z,69.01
2019-04-10T10:20:03.632Z,70.45
2019-04-10T10:23:08.162Z,70.30
2019-04-10T10:26:13.263Z,69.80
2019-04-10T10:29:17.738Z,69.50
2019-04-10T10:32:22.415Z,69.14
2019-04-10T10:35:27.305Z,69.23
2019-04-10T10:38:31.758Z,68.82
2019-04-10T10:41:36.255Z,65.63
2019-04-10T10:44:40.931Z,66.21
2019-04-10T10:47:46.357Z,66.34
2019-04-10T10:50:51.010Z,65.97
2019-04-10T10:53:56.596Z,64.26
2019-04-10T10:57:01.272Z,65.62
2019-04-10T11:00:08.745Z,68.02
2019-04-10T11:03:14.540Z,67.88
2019-04-10T11:06:19.326Z,65.94
2019-04-10T11:09:23.957Z,65.80
2019-04-10T11:12:28.730Z,66.40
2019-04-10T11:15:34.178Z,64.79
2019-04-10T11:18:38.689Z,65.98
2019-04-10T11:21:43.138Z,64.92
2019-04-10T11:24:47.585Z,63.17
2019-04-10T11:27:52.280Z,65.36
2019-04-10T11:30:58.304Z,64.91
2019-04-10T11:34:04.130Z,64.46
2019-04-10T11:43:24.387Z,65.15
2019-04-10T11:46:31.932Z,66.29
2019-04-10T11:49:36.875Z,65.30
2019-04-10T11:52:48.010Z,63.91
2019-04-10T11:55:51.104Z,64.37
2019-04-10T12:02:03.504Z,65.05
2019-04-10T12:05:12.010Z,62.53
2019-04-10T12:11:21.371Z,62.64
2019-04-10T12:14:26.278Z,62.08
2019-04-10T12:17:30.734Z,63.51
2019-04-10T12:20:35.432Z,61.85
2019-04-10T12:23:40.753Z,62.64
2019-04-10T12:26:45.720Z,61.08
2019-04-10T12:29:51.006Z,60.63
2019-04-10T12:32:56.835Z,59.50
2019-04-10T12:36:02.440Z,57.96
2019-04-10T12:39:09.356Z,58.44
2019-04-10T12:42:14.220Z,58.98
2019-04-10T12:45:18.801Z,58.86
2019-04-10T12:48:23.543Z,59.21
2019-04-10T12:51:27.993Z,57.62
2019-04-10T12:54:33.490Z,59.12
2019-04-10T12:57:39.083Z,57.00
2019-04-10T13:00:44.601Z,57.73
2019-04-10T13:03:49.541Z,59.82
2019-04-10T13:06:54.798Z,59.04
2019-04-10T13:09:59.524Z,58.56
2019-04-10T13:13:04.105Z,57.80
2019-04-10T13:16:08.570Z,57.41
2019-04-10T13:19:13.312Z,58.79
2019-04-10T13:22:18.058Z,57.54
2019-04-10T13:25:22.552Z,57.59
2019-04-10T13:28:27.608Z,56.83
2019-04-10T13:31:33.225Z,56.97
2019-04-10T13:34:37.763Z,57.43
2019-04-10T13:37:43.380Z,57.51
2019-04-10T13:40:48.139Z,56.01
2019-04-10T13:43:53.976Z,56.88
2019-04-10T13:46:59.447Z,54.93
2019-04-10T13:50:06.546Z,56.40
2019-04-10T13:53:10.981Z,56.13
2019-04-10T13:56:15.707Z,53.45
2019-04-10T13:59:20.734Z,53.97
2019-04-10T14:02:30.814Z,54.92
2019-04-10T14:05:36.919Z,52.61
2019-04-10T14:08:58.621Z,53.40
2019-04-10T14:11:49.200Z,53.57
2019-04-10T14:14:53.794Z,53.33
2019-04-10T14:17:58.245Z,54.16
2019-04-10T14:21:07.497Z,54.33
2019-04-10T14:24:09.569Z,53.76
2019-04-10T14:27:16.170Z,55.00
2019-04-10T14:30:31.623Z,52.93
2019-04-10T14:33:36.333Z,53.20
2019-04-10T14:36:40.853Z,54.72
2019-04-10T14:39:45.595Z,53.26
2019-04-10T14:42:50.049Z,52.42
2019-04-10T14:45:54.489Z,51.72
2019-04-10T14:48:59.276Z,52.86
2019-04-10T14:52:05.102Z,52.32
2019-04-10T14:55:10.382Z,52.83
2019-04-10T14:58:24.183Z,49.91
2019-04-10T15:01:21.990Z,51.21
2019-04-10T15:04:26.896Z,50.92
2019-04-10T15:07:31.651Z,49.65
2019-04-10T15:10:36.091Z,51.40
2019-04-10T15:13:40.811Z,50.96
2019-04-10T15:16:54.470Z,49.64
2019-04-10T15:19:52.588Z,50.80
2019-04-10T15:22:58.645Z,51.83
2019-04-10T15:26:03.864Z,52.26
2019-04-10T15:29:08.437Z,50.80
2019-04-10T15:32:13.286Z,50.77
2019-04-10T15:35:18.104Z,51.53
2019-04-10T15:38:22.556Z,52.07
2019-04-10T15:41:27.395Z,52.04
2019-04-10T15:44:32.346Z,50.05
2019-04-10T15:47:37.457Z,51.64
2019-04-10T15:50:43.395Z,51.71
2019-04-10T15:53:49.323Z,49.14
2019-04-10T15:56:54.201Z,49.89
2019-04-10T15:59:58.796Z,51.24
2019-04-10T16:03:03.195Z,50.48
2019-04-10T16:06:08.227Z,50.61
2019-04-10T16:09:16.865Z,49.97
2019-04-10T16:12:23.251Z,49.25
2019-04-10T16:15:29.657Z,48.43
2019-04-10T16:18:35.002Z,49.98
2019-04-10T16:21:39.537Z,49.39
2019-04-10T16:24:44.977Z,49.06
2019-04-10T16:27:50.018Z,48.82
2019-04-10T16:30:55.149Z,49.24
2019-04-10T16:34:00.601Z,48.46
2019-04-10T16:37:06.117Z,49.72
2019-04-10T16:40:11.787Z,49.89
2019-04-10T16:43:18.062Z,50.04
2019-04-10T16:46:23.782Z,50.59
2019-04-10T16:49:28.910Z,50.72
2019-04-10T16:52:33.807Z,51.15
2019-04-10T16:55:38.531Z,51.76
2019-04-10T16:58:44.440Z,51.85
2019-04-10T17:01:49.318Z,53.22
2019-04-10T17:04:54.222Z,52.75
2019-04-10T17:07:59.303Z,52.79
2019-04-10T17:11:07.050Z,52.25
2019-04-10T17:14:13.014Z,52.99
2019-04-10T17:17:18.026Z,52.51
2019-04-10T17:20:24.592Z,52.46
2019-04-10T17:23:29.112Z,52.58
2019-04-10T17:26:34.992Z,52.63
2019-04-10T17:29:40.970Z,51.93
2019-04-10T17:32:46.623Z,53.14
2019-04-10T17:35:51.817Z,51.69
2019-04-10T17:38:56.422Z,53.63
2019-04-10T17:42:00.863Z,53.29
2019-04-10T17:45:08.020Z,52.64
2019-04-10T17:48:13.670Z,53.22
2019-04-10T17:51:19.673Z,53.34
2019-04-10T17:54:25.066Z,54.39
2019-04-10T17:57:38.089Z,54.44
2019-04-10T18:00:43.278Z,54.08
2019-04-10T18:03:53.166Z,54.50
2019-04-10T18:06:55.444Z,55.10
2019-04-10T18:10:00.330Z,56.48
2019-04-10T18:13:05.334Z,55.15
2019-04-10T18:16:10.661Z,55.92
2019-04-10T18:19:15.559Z,54.54
2019-04-10T18:22:20.660Z,54.71
2019-04-10T18:25:25.638Z,55.16
2019-04-10T18:28:32.381Z,55.25
2019-04-10T18:31:36.824Z,55.81
2019-04-10T18:34:42.348Z,54.87
2019-04-10T18:37:48.039Z,55.40
2019-04-10T18:41:00.656Z,56.05
2019-04-10T18:44:00.539Z,56.53
2019-04-10T18:47:05.385Z,58.68
2019-04-10T18:50:11.885Z,57.07
2019-04-10T18:53:17.105Z,57.06
2019-04-10T18:56:22.039Z,57.45
2019-04-10T18:59:34.436Z,58.03
2019-04-10T19:02:39.137Z,58.83
2019-04-10T19:06:00.707Z,59.84
2019-04-10T19:09:15.399Z,59.30
2019-04-10T19:12:14.686Z,60.88
2019-04-10T19:15:20.303Z,61.85
2019-04-10T19:18:25.912Z,61.15
2019-04-10T19:21:31.603Z,61.59
2019-04-10T19:24:36.347Z,61.32
2019-04-10T19:27:40.747Z,61.81
2019-04-10T19:30:47.675Z,60.65
2019-04-10T19:33:52.246Z,60.62
2019-04-10T19:36:56.704Z,63.09
2019-04-10T19:40:02.623Z,65.10
2019-04-10T19:43:08.333Z,65.81
2019-04-10T19:46:13.160Z,65.84
2019-04-10T19:49:17.604Z,67.13
2019-04-10T19:52:22.459Z,67.46
2019-04-10T19:55:27.470Z,68.03
2019-04-10T19:58:32.313Z,67.68
2019-04-10T20:01:38.036Z,68.12
2019-04-10T20:04:43.040Z,68.53
2019-04-10T20:07:47.913Z,68.26
2019-04-10T20:10:52.359Z,68.60
2019-04-10T20:13:59.664Z,69.43
2019-04-10T20:17:03.871Z,68.81
2019-04-10T20:20:08.541Z,68.65
2019-04-10T20:23:14.089Z,68.85
2019-04-10T20:26:18.888Z,68.36
2019-04-10T20:29:23.317Z,66.14
2019-04-10T20:32:28.048Z,66.17
2019-04-10T20:35:34.040Z,66.83
2019-04-10T20:38:38.788Z,67.57
2019-04-10T20:41:51.021Z,67.64
2019-04-10T20:44:49.917Z,67.60
2019-04-10T20:47:54.358Z,67.59
2019-04-10T20:50:59.064Z,67.30
2019-04-10T20:54:04.394Z,67.78
2019-04-10T20:57:08.940Z,66.94
2019-04-10T21:00:32.196Z,65.93
2019-04-10T21:03:36.715Z,66.28
2019-04-10T21:06:42.337Z,65.98
2019-04-10T21:09:48.150Z,64.85
2019-04-10T21:12:52.691Z,61.91
2019-04-10T21:15:58.386Z,59.41
2019-04-10T21:19:03.086Z,60.74
2019-04-10T21:22:08.166Z,57.99
2019-04-10T21:25:13.012Z,54.75
2019-04-10T21:28:18.371Z,52.74
2019-04-10T21:31:30.382Z,53.50
2019-04-10T21:34:37.006Z,52.56
2019-04-10T21:37:42.388Z,52.53
2019-04-10T21:40:47.426Z,51.05
2019-04-10T21:43:52.263Z,53.56
2019-04-10T21:46:57.215Z,53.49
2019-04-10T21:50:02.603Z,53.65
2019-04-10T21:53:08.112Z,51.88
2019-04-10T21:56:13.019Z,50.71
2019-04-10T21:59:18.338Z,50.35
2019-04-10T22:02:23.834Z,50.66
2019-04-10T22:05:28.397Z,50.59
2019-04-10T22:08:49.959Z,50.63
2019-04-10T22:11:57.400Z,50.67
2019-04-10T22:15:04.446Z,52.23
2019-04-10T22:18:09.461Z,50.53
2019-04-10T22:21:14.496Z,49.62
2019-04-10T22:24:18.966Z,50.82
2019-04-10T22:27:23.670Z,51.10
2019-04-10T22:30:29.509Z,50.69
2019-04-10T22:33:34.467Z,50.61
2019-04-10T22:36:39.546Z,50.13
2019-04-10T22:39:44.432Z,49.82
2019-04-10T22:42:49.858Z,50.21
2019-04-10T22:45:54.995Z,49.21
2019-04-10T22:48:59.453Z,50.77
2019-04-10T22:52:04.696Z,50.71
2019-04-10T22:55:09.310Z,48.68
2019-04-10T22:58:14.956Z,48.88
2019-04-10T23:01:20.635Z,48.71
2019-04-10T23:04:26.464Z,50.03
2019-04-10T23:07:30.869Z,49.26
2019-04-10T23:10:35.637Z,49.45
2019-04-10T23:13:40.501Z,49.03
2019-04-10T23:16:46.176Z,50.15
2019-04-10T23:19:52.230Z,49.45
2019-04-10T23:22:56.930Z,50.24
2019-04-10T23:26:01.717Z,49.46
2019-04-10T23:29:06.291Z,49.67
2019-04-10T23:32:11.229Z,49.67
2019-04-10T23:35:16.816Z,50.48
2019-04-10T23:38:21.791Z,52.13
2019-04-10T23:41:26.532Z,52.34
2019-04-10T23:44:31.178Z,53.10
2019-04-10T23:47:36.059Z,52.08
2019-04-10T23:50:40.819Z,53.04
2019-04-10T23:53:46.691Z,53.29
2019-04-10T23:56:52.585Z,55.55
2019-04-10T23:59:57.373Z,55.02
